Time;durP1;ratioP1;P1;durP2;ratioP2;P2;SDS_P1;SDS_P2;PMS_P1;PMS_P2;Temp;Humidity;BMP_temperature;BMP_pressure;BME280_temperature;BME280_humidity;BME280_pressure;Samples;Min_cycle;Max_cycle;Signal;HPM_P1;HPM_P2
2022/09/16 00:00:46;;;;;;;15.98;7.10;;;;;;;;;;5057838;28;20201;-55
2022/09/16 00:03:33;;;;;;;13.93;7.57;;;;;;;;;;5057997;28;20214;-52
2022/09/16 00:06:01;;;;;;;15.57;7.13;;;;;;;;;;5056225;28;20199;-49
2022/09/16 00:08:27;;;;;;;12.05;6.07;;;;;;;;;;5057933;28;20229;-51
2022/09/16 00:10:59;;;;;;;11.07;6.25;;;;;;;;;;5057448;28;20270;-49
2022/09/16 00:13:26;;;;;;;10.43;6.28;;;;;;;;;;5057807;28;20208;-53
2022/09/16 00:15:53;;;;;;;14.43;6.05;;;;;;;;;;5057627;28;20248;-48
2022/09/16 00:18:20;;;;;;;11.30;6.28;;;;;;;;;;5056764;28;20208;-53
2022/09/16 00:20:51;;;;;;;10.68;5.50;;;;;;;;;;5057417;28;20258;-51
2022/09/16 00:23:18;;;;;;;10.40;5.32;;;;;;;;;;5057492;28;20286;-51
2022/09/16 00:25:53;;;;;;;11.65;6.30;;;;;;;;;;5057169;28;20277;-52
2022/09/16 00:28:21;;;;;;;9.55;5.85;;;;;;;;;;5057242;28;20227;-52
2022/09/16 00:30:48;;;;;;;11.02;6.00;;;;;;;;;;5057201;28;20208;-48
2022/09/16 00:33:16;;;;;;;13.98;5.80;;;;;;;;;;5057225;28;20204;-49
2022/09/16 00:35:43;;;;;;;10.82;6.18;;;;;;;;;;5056707;28;20200;-49
2022/09/16 00:38:11;;;;;;;10.20;6.00;;;;;;;;;;5057113;28;20592;-48
2022/09/16 00:40:46;;;;;;;8.63;5.07;;;;;;;;;;5057059;28;20203;-49
2022/09/16 00:43:17;;;;;;;13.07;5.95;;;;;;;;;;5057085;28;20218;-48
2022/09/16 00:45:48;;;;;;;11.57;5.65;;;;;;;;;;5057119;28;20285;-47
2022/09/16 00:48:18;;;;;;;8.68;5.45;;;;;;;;;;5056966;28;20606;-48
2022/09/16 00:51:04;;;;;;;7.07;5.00;;;;;;;;;;5056939;28;20265;-47
2022/09/16 00:53:39;;;;;;;13.85;5.53;;;;;;;;;;5056443;28;20528;-47
2022/09/16 00:56:11;;;;;;;11.27;5.53;;;;;;;;;;5055917;28;20692;-47
2022/09/16 00:58:44;;;;;;;8.27;5.60;;;;;;;;;;5056656;28;20211;-49
2022/09/16 01:01:11;;;;;;;12.18;5.50;;;;;;;;;;5056617;28;20215;-47
2022/09/16 01:03:45;;;;;;;8.95;5.55;;;;;;;;;;5056639;28;20200;-48
2022/09/16 01:06:13;;;;;;;11.32;6.28;;;;;;;;;;5055611;28;20264;-52
2022/09/16 01:08:41;;;;;;;13.40;5.60;;;;;;;;;;5055946;28;20242;-51
2022/09/16 01:11:08;;;;;;;11.65;5.45;;;;;;;;;;5055619;28;20207;-48
2022/09/16 01:13:37;;;;;;;10.82;5.75;;;;;;;;;;5056564;28;20282;-52
2022/09/16 01:16:29;;;;;;;10.38;5.53;;;;;;;;;;5055597;28;20291;-48
2022/09/16 01:19:00;;;;;;;9.40;5.22;;;;;;;;;;5055796;28;20219;-50
2022/09/16 01:21:37;;;;;;;7.40;5.57;;;;;;;;;;5056326;28;20262;-50
2022/09/16 01:24:24;;;;;;;11.52;5.47;;;;;;;;;;5055417;28;20204;-48
2022/09/16 01:27:31;;;;;;;12.43;5.22;;;;;;;;;;5056610;28;20204;-50
2022/09/16 01:30:16;;;;;;;12.68;5.28;;;;;;;;;;5055103;28;20242;-48
2022/09/16 01:32:57;;;;;;;11.55;5.60;;;;;;;;;;5056359;28;20573;-51
2022/09/16 01:35:44;;;;;;;8.48;5.45;;;;;;;;;;5056068;28;20200;-52
2022/09/16 01:38:29;;;;;;;9.75;5.38;;;;;;;;;;5055387;28;20220;-52
2022/09/16 01:41:28;;;;;;;8.65;5.65;;;;;;;;;;5056287;28;20207;-49
2022/09/16 01:44:01;;;;;;;8.98;5.80;;;;;;;;;;5052390;28;20290;-49
2022/09/16 01:46:40;;;;;;;14.20;5.72;;;;;;;;;;5054897;28;20326;-51
2022/09/16 01:49:35;;;;;;;13.45;5.72;;;;;;;;;;5054847;28;20664;-51
2022/09/16 01:52:21;;;;;;;9.73;6.22;;;;;;;;;;5055405;28;20620;-49
2022/09/16 01:55:05;;;;;;;11.93;6.10;;;;;;;;;;5055903;28;20314;-47
2022/09/16 01:57:38;;;;;;;12.13;6.05;;;;;;;;;;5054701;28;20207;-48
2022/09/16 02:00:06;;;;;;;14.23;7.28;;;;;;;;;;5055795;28;20208;-48
2022/09/16 02:02:38;;;;;;;24.95;11.15;;;;;;;;;;5054644;28;20625;-48
2022/09/16 02:05:11;;;;;;;24.85;13.82;;;;;;;;;;5055840;28;20230;-55
2022/09/16 02:07:43;;;;;;;36.20;18.77;;;;;;;;;;5071487;28;20218;-49
2022/09/16 02:10:26;;;;;;;49.35;25.23;;;;;;;;;;5054745;28;20306;-52
2022/09/16 02:12:58;;;;;;;38.78;19.27;;;;;;;;;;5054426;28;20188;-47
2022/09/16 02:15:26;;;;;;;20.00;10.23;;;;;;;;;;5055629;28;20217;-48
2022/09/16 02:18:01;;;;;;;18.50;10.85;;;;;;;;;;5055216;28;20204;-48
2022/09/16 02:20:31;;;;;;;21.05;11.27;;;;;;;;;;5056948;28;20208;-48
2022/09/16 02:23:11;;;;;;;21.35;10.18;;;;;;;;;;5044512;28;20300;-51
2022/09/16 02:25:39;;;;;;;20.83;7.78;;;;;;;;;;5050456;28;20207;-49
2022/09/16 02:28:12;;;;;;;18.52;10.23;;;;;;;;;;5034060;28;20737;-47
2022/09/16 02:30:42;;;;;;;16.27;9.27;;;;;;;;;;5034468;28;20193;-48
2022/09/16 02:33:12;;;;;;;13.77;8.95;;;;;;;;;;5035015;28;20228;-48
2022/09/16 02:35:40;;;;;;;12.20;7.00;;;;;;;;;;5035181;28;20204;-48
2022/09/16 02:38:18;;;;;;;9.05;6.35;;;;;;;;;;5035147;28;20205;-53
2022/09/16 02:40:50;;;;;;;15.18;6.72;;;;;;;;;;5035162;28;20227;-47
2022/09/16 02:43:17;;;;;;;8.65;6.55;;;;;;;;;;5050888;28;20230;-53
2022/09/16 02:45:50;;;;;;;14.73;7.53;;;;;;;;;;5034798;28;20236;-49
2022/09/16 02:48:33;;;;;;;10.70;5.78;;;;;;;;;;5034964;28;20242;-54
2022/09/16 02:51:39;;;;;;;11.63;6.15;;;;;;;;;;5033959;28;20649;-48
2022/09/16 02:54:21;;;;;;;11.15;5.90;;;;;;;;;;5016736;28;20291;-47
2022/09/16 02:56:48;;;;;;;8.75;5.93;;;;;;;;;;5034182;28;20243;-50
2022/09/16 02:59:16;;;;;;;11.40;6.28;;;;;;;;;;5051002;28;20212;-49
2022/09/16 03:01:45;;;;;;;15.05;7.00;;;;;;;;;;5034171;28;20212;-53
2022/09/16 03:04:15;;;;;;;11.18;6.28;;;;;;;;;;5034963;28;20299;-50
2022/09/16 03:06:42;;;;;;;14.50;6.45;;;;;;;;;;5034777;28;20200;-50
2022/09/16 03:09:11;;;;;;;10.50;6.07;;;;;;;;;;5034659;28;20236;-51
2022/09/16 03:11:38;;;;;;;10.07;5.97;;;;;;;;;;5034313;28;20224;-49
2022/09/16 03:14:27;;;;;;;8.43;5.85;;;;;;;;;;5034788;28;20220;-49
2022/09/16 03:17:03;;;;;;;11.15;6.57;;;;;;;;;;5034516;28;20614;-47
2022/09/16 03:19:59;;;;;;;8.95;5.65;;;;;;;;;;5034784;28;20220;-47
2022/09/16 03:22:54;;;;;;;11.07;6.38;;;;;;;;;;5049998;28;20204;-53
2022/09/16 03:25:46;;;;;;;9.52;5.80;;;;;;;;;;5034811;28;20205;-51
2022/09/16 03:28:46;;;;;;;9.25;6.00;;;;;;;;;;5034531;28;20201;-47
2022/09/16 03:31:23;;;;;;;8.70;5.95;;;;;;;;;;5050203;28;20205;-49
2022/09/16 03:33:58;;;;;;;14.52;6.93;;;;;;;;;;5033262;28;20610;-51
2022/09/16 03:36:29;;;;;;;10.70;6.45;;;;;;;;;;5034351;28;20619;-48
2022/09/16 03:38:57;;;;;;;16.48;7.00;;;;;;;;;;5033678;28;20563;-52
2022/09/16 03:41:27;;;;;;;11.52;6.60;;;;;;;;;;5034013;28;20201;-48
2022/09/16 03:43:56;;;;;;;13.05;6.25;;;;;;;;;;5033125;28;20239;-51
2022/09/16 03:46:29;;;;;;;12.25;6.30;;;;;;;;;;5034415;28;20235;-50
2022/09/16 03:48:57;;;;;;;9.68;6.07;;;;;;;;;;5033006;28;20236;-50
2022/09/16 03:51:25;;;;;;;12.10;6.07;;;;;;;;;;5033906;28;20300;-53
2022/09/16 03:53:52;;;;;;;9.07;6.15;;;;;;;;;;5035839;28;20578;-50
2022/09/16 03:56:21;;;;;;;9.60;5.97;;;;;;;;;;5037811;28;20296;-50
2022/09/16 03:58:48;;;;;;;11.48;6.28;;;;;;;;;;5037466;28;20232;-49
2022/09/16 04:01:15;;;;;;;10.50;5.40;;;;;;;;;;5037291;28;20572;-57
2022/09/16 04:03:42;;;;;;;11.55;5.53;;;;;;;;;;5037624;28;20236;-48
2022/09/16 04:06:09;;;;;;;10.23;5.90;;;;;;;;;;5045951;28;20204;-56
2022/09/16 04:08:38;;;;;;;11.55;5.70;;;;;;;;;;5044336;28;20204;-57
2022/09/16 04:11:05;;;;;;;12.50;6.00;;;;;;;;;;5045969;28;20229;-56
2022/09/16 04:13:34;;;;;;;10.68;6.30;;;;;;;;;;5055128;28;20216;-56
2022/09/16 04:16:03;;;;;;;8.32;5.97;;;;;;;;;;5036162;28;20228;-54
2022/09/16 04:18:31;;;;;;;6.00;5.32;;;;;;;;;;5052844;28;20224;-53
2022/09/16 04:20:59;;;;;;;8.95;5.80;;;;;;;;;;5056044;28;20306;-54
2022/09/16 04:23:27;;;;;;;11.45;5.18;;;;;;;;;;5066977;28;20212;-55
2022/09/16 04:25:56;;;;;;;14.00;5.78;;;;;;;;;;5054195;28;20248;-56
2022/09/16 04:28:23;;;;;;;10.23;5.32;;;;;;;;;;5036375;28;20225;-48
2022/09/16 04:30:51;;;;;;;7.35;5.10;;;;;;;;;;5056249;28;20293;-54
2022/09/16 04:33:19;;;;;;;8.73;5.28;;;;;;;;;;5055713;28;20278;-55
2022/09/16 04:35:46;;;;;;;10.63;5.03;;;;;;;;;;5055806;28;20726;-53
2022/09/16 04:38:13;;;;;;;9.50;5.03;;;;;;;;;;5055829;28;20227;-49
2022/09/16 04:40:40;;;;;;;12.73;5.95;;;;;;;;;;5055436;28;20243;-56
2022/09/16 04:43:08;;;;;;;7.50;4.65;;;;;;;;;;5055452;28;20540;-52
2022/09/16 04:45:35;;;;;;;8.27;5.15;;;;;;;;;;5055872;28;20228;-54
2022/09/16 04:48:02;;;;;;;8.40;4.65;;;;;;;;;;5053699;28;20562;-54
2022/09/16 04:50:29;;;;;;;8.23;4.80;;;;;;;;;;5053396;28;20622;-52
2022/09/16 04:52:57;;;;;;;7.85;4.68;;;;;;;;;;5053228;28;20216;-52
2022/09/16 04:55:24;;;;;;;7.07;4.50;;;;;;;;;;5053367;28;20243;-52
2022/09/16 04:57:51;;;;;;;7.53;4.88;;;;;;;;;;5054330;28;20228;-50
2022/09/16 05:00:19;;;;;;;9.82;4.25;;;;;;;;;;5054187;28;20228;-56
2022/09/16 05:02:46;;;;;;;13.30;4.45;;;;;;;;;;5055509;28;20219;-53
2022/09/16 05:05:15;;;;;;;8.40;4.38;;;;;;;;;;5054144;28;20286;-49
2022/09/16 05:07:42;;;;;;;15.57;3.90;;;;;;;;;;5055793;28;20588;-49
2022/09/16 05:10:09;;;;;;;8.63;4.50;;;;;;;;;;5054597;28;20243;-53
2022/09/16 05:12:36;;;;;;;7.03;4.63;;;;;;;;;;5053550;28;20213;-50
2022/09/16 05:15:04;;;;;;;6.53;4.18;;;;;;;;;;5036259;28;20205;-57
2022/09/16 05:17:33;;;;;;;6.72;4.32;;;;;;;;;;5036609;28;20205;-49
2022/09/16 05:20:17;;;;;;;9.10;4.45;;;;;;;;;;5036133;28;20208;-55
2022/09/16 05:22:43;;;;;;;15.35;5.00;;;;;;;;;;5036026;28;20205;-52
2022/09/16 05:25:10;;;;;;;7.57;4.60;;;;;;;;;;5036414;28;20212;-57
2022/09/16 05:27:38;;;;;;;7.57;4.40;;;;;;;;;;5035909;28;20687;-53
2022/09/16 05:30:05;;;;;;;9.60;4.65;;;;;;;;;;5036040;28;20240;-53
2022/09/16 05:32:32;;;;;;;5.90;4.50;;;;;;;;;;5036158;28;20220;-52
2022/09/16 05:34:59;;;;;;;7.07;4.10;;;;;;;;;;5034786;28;20212;-53
2022/09/16 05:37:26;;;;;;;10.95;4.65;;;;;;;;;;5035012;28;20600;-50
2022/09/16 05:39:53;;;;;;;7.07;4.32;;;;;;;;;;5035279;28;20615;-48
2022/09/16 05:42:20;;;;;;;11.55;4.72;;;;;;;;;;5035930;28;20590;-52
2022/09/16 05:44:47;;;;;;;8.68;4.90;;;;;;;;;;5035680;28;20232;-53
2022/09/16 05:47:14;;;;;;;6.57;4.38;;;;;;;;;;5035606;28;20259;-49
2022/09/16 05:49:41;;;;;;;11.15;5.68;;;;;;;;;;5034310;28;20559;-52
2022/09/16 05:52:08;;;;;;;6.32;5.00;;;;;;;;;;5035972;28;20211;-53
2022/09/16 05:54:35;;;;;;;8.02;5.53;;;;;;;;;;5035736;28;20212;-53
2022/09/16 05:57:03;;;;;;;10.30;4.85;;;;;;;;;;5035642;28;20207;-49
2022/09/16 05:59:33;;;;;;;9.27;4.95;;;;;;;;;;5035617;28;20204;-48
2022/09/16 06:01:59;;;;;;;8.15;4.88;;;;;;;;;;5035460;28;20232;-52
2022/09/16 06:04:27;;;;;;;8.20;5.22;;;;;;;;;;5035426;28;20270;-53
2022/09/16 06:06:54;;;;;;;13.00;6.68;;;;;;;;;;5035102;28;20204;-52
2022/09/16 06:09:23;;;;;;;8.23;4.93;;;;;;;;;;5034613;28;20229;-53
2022/09/16 06:11:51;;;;;;;8.40;4.47;;;;;;;;;;5035448;28;20205;-49
2022/09/16 06:14:27;;;;;;;8.27;4.88;;;;;;;;;;5034148;28;20609;-51
2022/09/16 06:16:54;;;;;;;7.05;5.05;;;;;;;;;;5034888;28;20516;-50
2022/09/16 06:19:21;;;;;;;9.43;4.47;;;;;;;;;;5035101;28;20201;-49
2022/09/16 06:21:48;;;;;;;12.00;4.45;;;;;;;;;;5035067;28;20210;-52
2022/09/16 06:24:16;;;;;;;9.00;5.07;;;;;;;;;;5034968;28;20292;-51
2022/09/16 06:26:44;;;;;;;11.43;5.10;;;;;;;;;;5035065;28;20304;-49
2022/09/16 06:29:12;;;;;;;16.05;5.88;;;;;;;;;;5034719;28;20220;-50
2022/09/16 06:31:39;;;;;;;11.43;5.72;;;;;;;;;;5033206;28;20209;-52
2022/09/16 06:34:07;;;;;;;12.38;5.80;;;;;;;;;;5033974;28;20201;-52
2022/09/16 06:36:35;;;;;;;14.48;6.85;;;;;;;;;;5034754;28;20204;-51
2022/09/16 06:39:06;;;;;;;8.38;4.95;;;;;;;;;;5035161;28;20200;-52
2022/09/16 06:41:33;;;;;;;13.07;6.35;;;;;;;;;;5034669;28;20271;-51
2022/09/16 06:44:00;;;;;;;12.15;6.80;;;;;;;;;;5034499;28;20287;-49
2022/09/16 06:46:28;;;;;;;12.30;6.53;;;;;;;;;;5033835;28;20623;-52
2022/09/16 06:48:57;;;;;;;9.93;6.53;;;;;;;;;;5034669;28;20287;-53
2022/09/16 06:51:31;;;;;;;9.27;5.82;;;;;;;;;;5034962;28;20212;-53
2022/09/16 06:54:00;;;;;;;9.95;6.18;;;;;;;;;;5033788;28;20262;-50
2022/09/16 06:56:26;;;;;;;9.07;5.70;;;;;;;;;;5034768;28;20228;-51
2022/09/16 06:58:54;;;;;;;8.60;5.07;;;;;;;;;;5034606;28;20219;-48
2022/09/16 07:01:24;;;;;;;9.23;5.43;;;;;;;;;;5034082;28;20664;-51
2022/09/16 07:03:53;;;;;;;6.45;5.40;;;;;;;;;;5034565;28;20201;-53
2022/09/16 07:06:21;;;;;;;11.25;5.75;;;;;;;;;;5034391;28;20235;-52
2022/09/16 07:09:04;;;;;;;7.20;5.05;;;;;;;;;;5034105;28;20208;-49
2022/09/16 07:11:31;;;;;;;9.75;4.70;;;;;;;;;;5033990;28;20294;-54
2022/09/16 07:14:01;;;;;;;6.72;5.00;;;;;;;;;;5034409;28;20219;-52
2022/09/16 07:16:28;;;;;;;8.45;5.15;;;;;;;;;;5033677;28;20224;-54
2022/09/16 07:18:57;;;;;;;7.80;5.50;;;;;;;;;;5034094;28;20212;-53
2022/09/16 07:21:28;;;;;;;10.25;6.18;;;;;;;;;;5034377;28;20319;-52
2022/09/16 07:23:59;;;;;;;8.40;5.55;;;;;;;;;;5033641;28;20205;-52
2022/09/16 07:26:29;;;;;;;15.10;6.35;;;;;;;;;;5034078;28;20215;-52
2022/09/16 07:29:01;;;;;;;11.20;6.97;;;;;;;;;;5035318;28;20200;-53
2022/09/16 07:31:31;;;;;;;7.15;5.20;;;;;;;;;;5038065;28;20221;-51
2022/09/16 07:34:02;;;;;;;9.95;5.32;;;;;;;;;;5037974;28;20205;-52
2022/09/16 07:36:39;;;;;;;8.05;5.55;;;;;;;;;;5038254;28;20271;-54
2022/09/16 07:39:07;;;;;;;7.50;5.65;;;;;;;;;;5038187;28;20192;-52
2022/09/16 07:41:42;;;;;;;7.40;5.72;;;;;;;;;;5037986;28;20236;-49
2022/09/16 07:44:15;;;;;;;8.68;5.32;;;;;;;;;;5037896;28;20211;-56
2022/09/16 07:46:43;;;;;;;6.80;5.95;;;;;;;;;;5038500;28;20287;-50
2022/09/16 07:49:13;;;;;;;7.97;5.38;;;;;;;;;;5038136;28;20231;-49
2022/09/16 07:51:40;;;;;;;7.93;5.10;;;;;;;;;;5038390;28;20232;-51
2022/09/16 07:54:09;;;;;;;5.85;4.80;;;;;;;;;;5037252;28;20569;-52
2022/09/16 07:56:38;;;;;;;6.65;4.90;;;;;;;;;;5036840;28;20223;-52
2022/09/16 07:59:06;;;;;;;7.63;5.30;;;;;;;;;;5036757;28;20208;-52
2022/09/16 08:01:33;;;;;;;7.65;5.10;;;;;;;;;;5036476;28;20212;-49
2022/09/16 08:04:04;;;;;;;7.55;5.00;;;;;;;;;;5037105;28;20275;-50
2022/09/16 08:06:32;;;;;;;9.98;5.45;;;;;;;;;;5037552;28;20211;-54
2022/09/16 08:09:00;;;;;;;11.07;5.05;;;;;;;;;;5037004;28;20205;-53
2022/09/16 08:11:47;;;;;;;10.63;4.80;;;;;;;;;;5038109;28;20255;-50
2022/09/16 08:14:14;;;;;;;5.82;3.80;;;;;;;;;;5037514;28;20201;-49
2022/09/16 08:16:41;;;;;;;4.80;4.30;;;;;;;;;;5037168;28;20239;-55
2022/09/16 08:19:09;;;;;;;5.78;4.03;;;;;;;;;;5036851;28;20216;-52
2022/09/16 08:21:35;;;;;;;7.25;3.85;;;;;;;;;;5036875;28;20219;-54
2022/09/16 08:24:02;;;;;;;7.45;3.75;;;;;;;;;;5037235;28;20272;-51
2022/09/16 08:26:29;;;;;;;8.15;4.10;;;;;;;;;;5036853;28;20649;-50
2022/09/16 08:28:56;;;;;;;10.43;4.38;;;;;;;;;;5037024;28;20625;-51
2022/09/16 08:31:35;;;;;;;8.05;3.67;;;;;;;;;;5036816;28;20224;-52
2022/09/16 08:34:02;;;;;;;8.27;3.72;;;;;;;;;;5035863;28;20213;-54
2022/09/16 08:36:29;;;;;;;3.72;2.97;;;;;;;;;;5036627;28;20201;-50
2022/09/16 08:38:56;;;;;;;4.40;3.35;;;;;;;;;;5035505;28;20596;-52
2022/09/16 08:41:23;;;;;;;8.15;4.18;;;;;;;;;;5035319;28;20204;-50
2022/09/16 08:44:11;;;;;;;6.20;3.08;;;;;;;;;;5037364;28;20247;-49
2022/09/16 08:46:47;;;;;;;7.03;3.35;;;;;;;;;;5037122;28;20247;-51
2022/09/16 08:49:27;;;;;;;4.15;3.30;;;;;;;;;;5035922;28;20295;-53
2022/09/16 08:51:56;;;;;;;6.95;3.63;;;;;;;;;;5035887;28;20534;-50
2022/09/16 08:54:37;;;;;;;4.85;3.20;;;;;;;;;;5035755;28;20264;-52
2022/09/16 08:57:05;;;;;;;4.20;2.35;;;;;;;;;;5051403;28;20208;-52
2022/09/16 08:59:36;;;;;;;5.50;2.88;;;;;;;;;;5051980;28;20232;-52
2022/09/16 09:02:23;;;;;;;4.95;2.78;;;;;;;;;;5035800;28;20208;-52
2022/09/16 09:04:50;;;;;;;5.55;2.90;;;;;;;;;;5035439;28;20216;-51
2022/09/16 09:07:49;;;;;;;4.05;2.28;;;;;;;;;;5036639;28;20201;-50
2022/09/16 09:10:16;;;;;;;3.03;2.30;;;;;;;;;;5035052;28;20668;-52
2022/09/16 09:12:48;;;;;;;3.42;2.13;;;;;;;;;;5036589;28;20205;-52
2022/09/16 09:15:33;;;;;;;7.80;2.20;;;;;;;;;;5067750;28;20567;-53
2022/09/16 09:18:22;;;;;;;7.38;2.03;;;;;;;;;;5052017;28;20235;-49
2022/09/16 09:21:08;;;;;;;5.60;2.15;;;;;;;;;;5035677;28;20228;-52
2022/09/16 09:24:16;;;;;;;3.17;2.00;;;;;;;;;;5035748;28;20259;-52
2022/09/16 09:26:48;;;;;;;5.97;2.17;;;;;;;;;;5014296;28;20272;-49
2022/09/16 09:29:23;;;;;;;3.88;1.90;;;;;;;;;;5032595;28;20205;-53
2022/09/16 09:31:58;;;;;;;3.42;1.70;;;;;;;;;;5034246;28;20204;-53
2022/09/16 09:34:35;;;;;;;9.13;2.13;;;;;;;;;;5033434;28;20208;-53
2022/09/16 09:37:17;;;;;;;7.78;2.20;;;;;;;;;;5034958;28;20277;-50
2022/09/16 09:39:54;;;;;;;5.25;1.70;;;;;;;;;;5035563;28;20239;-51
2022/09/16 09:42:28;;;;;;;5.90;2.15;;;;;;;;;;5049318;28;20262;-52
2022/09/16 09:45:11;;;;;;;66.15;4.80;;;;;;;;;;5050831;28;20712;-49
2022/09/16 09:47:46;;;;;;;4.32;1.60;;;;;;;;;;5034660;28;20251;-51
2022/09/16 09:50:25;;;;;;;4.03;1.77;;;;;;;;;;5034773;28;20208;-51
2022/09/16 09:53:00;;;;;;;5.20;2.05;;;;;;;;;;5034902;28;20277;-52
2022/09/16 09:55:32;;;;;;;4.65;1.73;;;;;;;;;;5034242;28;20291;-52
2022/09/16 09:58:10;;;;;;;4.60;1.63;;;;;;;;;;5035198;28;20203;-52
2022/09/16 10:00:36;;;;;;;8.10;1.88;;;;;;;;;;5035532;28;20243;-54
2022/09/16 10:03:13;;;;;;;4.78;1.30;;;;;;;;;;5035400;28;20208;-54
2022/09/16 10:05:41;;;;;;;5.90;1.90;;;;;;;;;;5035229;28;20287;-52
2022/09/16 10:08:20;;;;;;;4.60;1.80;;;;;;;;;;5035433;28;20204;-51
2022/09/16 10:11:00;;;;;;;3.17;1.40;;;;;;;;;;5033788;28;20316;-54
2022/09/16 10:13:29;;;;;;;3.15;1.50;;;;;;;;;;5035738;28;20564;-52
2022/09/16 10:16:09;;;;;;;4.32;1.23;;;;;;;;;;5034365;28;20205;-52
2022/09/16 10:18:36;;;;;;;2.75;1.33;;;;;;;;;;5034722;28;20251;-53
2022/09/16 10:21:13;;;;;;;13.50;1.65;;;;;;;;;;5033656;28;20216;-50
2022/09/16 10:23:40;;;;;;;4.72;1.38;;;;;;;;;;5034087;28;20219;-50
2022/09/16 10:26:25;;;;;;;7.10;1.30;;;;;;;;;;5035075;28;20213;-53
2022/09/16 10:29:13;;;;;;;5.15;1.08;;;;;;;;;;5034765;28;20217;-54
2022/09/16 10:31:41;;;;;;;3.35;1.67;;;;;;;;;;5034849;28;20323;-52
2022/09/16 10:34:28;;;;;;;7.53;1.35;;;;;;;;;;5035261;28;20208;-51
2022/09/16 10:37:11;;;;;;;4.18;1.50;;;;;;;;;;5034790;28;20246;-49
2022/09/16 10:39:44;;;;;;;3.92;1.25;;;;;;;;;;5035809;28;20204;-53
2022/09/16 10:42:20;;;;;;;5.32;1.35;;;;;;;;;;5034104;28;20728;-53
2022/09/16 10:44:50;;;;;;;3.72;1.30;;;;;;;;;;5035045;28;20653;-51
2022/09/16 10:47:35;;;;;;;2.30;1.30;;;;;;;;;;5034767;28;20332;-54
2022/09/16 10:50:04;;;;;;;3.10;1.20;;;;;;;;;;5035500;28;20200;-52
2022/09/16 10:52:40;;;;;;;2.58;1.30;;;;;;;;;;5034942;28;20239;-51
2022/09/16 10:55:27;;;;;;;5.43;1.70;;;;;;;;;;5034951;28;20579;-50
2022/09/16 10:58:06;;;;;;;5.32;1.60;;;;;;;;;;5034928;28;20216;-55
2022/09/16 11:00:49;;;;;;;1.85;1.40;;;;;;;;;;5034960;28;20207;-53
2022/09/16 11:03:51;;;;;;;3.45;1.65;;;;;;;;;;5036942;28;20247;-53
2022/09/16 11:06:56;;;;;;;2.95;1.35;;;;;;;;;;5027537;28;20514;-52
2022/09/16 11:09:51;;;;;;;4.78;1.50;;;;;;;;;;5031113;28;20287;-50
2022/09/16 11:12:42;;;;;;;4.38;1.30;;;;;;;;;;5038492;28;20235;-53
2022/09/16 11:15:26;;;;;;;3.33;1.20;;;;;;;;;;5038846;28;20296;-53
2022/09/16 11:18:32;;;;;;;2.58;1.05;;;;;;;;;;5038608;28;20192;-51
2022/09/16 11:21:08;;;;;;;2.30;1.30;;;;;;;;;;5037334;28;20228;-52
2022/09/16 11:23:57;;;;;;;4.32;0.98;;;;;;;;;;5038243;28;20581;-53
2022/09/16 11:26:58;;;;;;;2.67;1.25;;;;;;;;;;5037656;28;20215;-51
2022/09/16 11:29:44;;;;;;;3.72;1.23;;;;;;;;;;5037389;28;20278;-55
2022/09/16 11:32:32;;;;;;;1.58;0.88;;;;;;;;;;5038120;28;20229;-54
2022/09/16 11:35:09;;;;;;;2.80;1.13;;;;;;;;;;5037918;28;20215;-54
2022/09/16 11:37:41;;;;;;;3.30;1.20;;;;;;;;;;5037581;28;20196;-51
2022/09/16 11:40:50;;;;;;;4.55;1.50;;;;;;;;;;5036418;28;20212;-52
2022/09/16 11:43:32;;;;;;;4.28;1.02;;;;;;;;;;5015667;28;20229;-53
2022/09/16 11:46:19;;;;;;;3.38;1.10;;;;;;;;;;5015614;28;20233;-53
2022/09/16 11:49:16;;;;;;;3.72;1.25;;;;;;;;;;5016282;28;20221;-57
2022/09/16 11:52:11;;;;;;;4.57;1.17;;;;;;;;;;5031974;28;20224;-57
2022/09/16 11:55:00;;;;;;;3.90;0.95;;;;;;;;;;5030974;28;20284;-54
2022/09/16 11:57:35;;;;;;;3.20;1.10;;;;;;;;;;5015981;28;20196;-56
2022/09/16 12:00:15;;;;;;;3.17;0.98;;;;;;;;;;5018365;28;20643;-52
2022/09/16 12:02:54;;;;;;;6.38;0.88;;;;;;;;;;5017223;28;20223;-53
2022/09/16 12:05:37;;;;;;;7.72;1.13;;;;;;;;;;5033533;28;20632;-51
2022/09/16 12:08:21;;;;;;;3.92;1.27;;;;;;;;;;5012536;28;20231;-50
2022/09/16 12:10:59;;;;;;;3.20;0.90;;;;;;;;;;5018882;28;20220;-50
2022/09/16 12:13:35;;;;;;;2.38;1.10;;;;;;;;;;5031108;28;20200;-53
2022/09/16 12:16:12;;;;;;;2.05;0.77;;;;;;;;;;5016516;28;20197;-58
2022/09/16 12:18:43;;;;;;;5.65;0.95;;;;;;;;;;5042293;28;20206;-58
2022/09/16 12:21:20;;;;;;;1.45;0.75;;;;;;;;;;5052264;28;20203;-57
2022/09/16 12:23:50;;;;;;;5.38;1.10;;;;;;;;;;5053425;28;20687;-58
2022/09/16 12:26:20;;;;;;;6.13;0.82;;;;;;;;;;5053787;28;20215;-58
2022/09/16 12:29:16;;;;;;;7.15;1.00;;;;;;;;;;5053305;28;20574;-58
2022/09/16 12:32:11;;;;;;;3.83;0.80;;;;;;;;;;5054604;28;20215;-58
2022/09/16 12:34:43;;;;;;;5.07;0.90;;;;;;;;;;5047212;28;20219;-58
2022/09/16 12:37:32;;;;;;;3.42;1.20;;;;;;;;;;5051361;28;20206;-59
2022/09/16 12:40:00;;;;;;;3.10;1.00;;;;;;;;;;5047290;28;20196;-57
2022/09/16 12:42:42;;;;;;;4.63;1.00;;;;;;;;;;5051992;28;20231;-58
2022/09/16 12:45:46;;;;;;;4.88;1.42;;;;;;;;;;5052983;28;20231;-59
2022/09/16 12:48:19;;;;;;;4.22;1.30;;;;;;;;;;5049837;28;20222;-59
2022/09/16 12:50:53;;;;;;;5.95;1.27;;;;;;;;;;5049203;28;20242;-58
2022/09/16 12:53:39;;;;;;;7.63;1.00;;;;;;;;;;5049683;28;20219;-58
2022/09/16 12:56:15;;;;;;;4.47;0.98;;;;;;;;;;5052852;28;20220;-58
2022/09/16 12:59:00;;;;;;;5.15;1.33;;;;;;;;;;5051484;28;20226;-58
2022/09/16 13:01:32;;;;;;;3.47;1.10;;;;;;;;;;5052330;28;20278;-58
2022/09/16 13:04:08;;;;;;;3.97;0.95;;;;;;;;;;5054502;28;20231;-58
2022/09/16 13:06:39;;;;;;;4.40;1.10;;;;;;;;;;5052167;28;20636;-58
2022/09/16 13:09:26;;;;;;;2.92;1.30;;;;;;;;;;5052841;28;20219;-57
2022/09/16 13:12:01;;;;;;;5.82;1.50;;;;;;;;;;5051456;28;20377;-57
2022/09/16 13:15:03;;;;;;;8.98;1.42;;;;;;;;;;5051602;28;20754;-56
2022/09/16 13:17:38;;;;;;;8.80;1.40;;;;;;;;;;5061710;28;20231;-57
2022/09/16 13:20:14;;;;;;;5.55;0.90;;;;;;;;;;5044354;28;20234;-57
2022/09/16 13:22:47;;;;;;;7.22;1.00;;;;;;;;;;5053100;28;20246;-56
2022/09/16 13:25:40;;;;;;;4.40;1.02;;;;;;;;;;5052927;28;20220;-57
2022/09/16 13:28:36;;;;;;;5.57;1.02;;;;;;;;;;5031071;28;20631;-57
2022/09/16 13:31:12;;;;;;;6.82;1.10;;;;;;;;;;5029581;28;20262;-58
2022/09/16 13:33:42;;;;;;;7.95;1.23;;;;;;;;;;5028514;28;20213;-56
2022/09/16 13:36:18;;;;;;;1.85;0.80;;;;;;;;;;5031533;28;20216;-57
2022/09/16 13:38:49;;;;;;;5.47;1.00;;;;;;;;;;5028808;28;20235;-56
2022/09/16 13:41:31;;;;;;;2.67;1.05;;;;;;;;;;5030479;28;20232;-57
2022/09/16 13:43:58;;;;;;;5.13;1.33;;;;;;;;;;5029550;28;20271;-57
2022/09/16 13:46:30;;;;;;;5.03;0.90;;;;;;;;;;5028547;28;20334;-56
2022/09/16 13:49:09;;;;;;;2.85;0.95;;;;;;;;;;5031097;28;20236;-53
2022/09/16 13:51:39;;;;;;;3.60;0.95;;;;;;;;;;5015359;28;20255;-55
2022/09/16 13:54:18;;;;;;;1.95;0.68;;;;;;;;;;5032446;28;20235;-57
2022/09/16 13:56:53;;;;;;;3.08;0.95;;;;;;;;;;5032684;28;20228;-56
2022/09/16 13:59:38;;;;;;;3.47;0.95;;;;;;;;;;5030319;28;20227;-56
2022/09/16 14:02:39;;;;;;;2.78;1.10;;;;;;;;;;5028799;28;20232;-55
2022/09/16 14:05:18;;;;;;;3.22;1.00;;;;;;;;;;5038950;28;20239;-56
2022/09/16 14:07:51;;;;;;;6.85;1.27;;;;;;;;;;5052124;28;20279;-55
2022/09/16 14:10:39;;;;;;;3.10;0.73;;;;;;;;;;5050802;28;20285;-55
2022/09/16 14:13:15;;;;;;;6.53;1.00;;;;;;;;;;5052425;28;20259;-55
2022/09/16 14:15:49;;;;;;;4.22;1.38;;;;;;;;;;5048392;28;20251;-56
2022/09/16 14:18:20;;;;;;;3.33;1.40;;;;;;;;;;5047704;28;20226;-56
2022/09/16 14:20:53;;;;;;;69.63;5.20;;;;;;;;;;5050008;28;20619;-55
2022/09/16 14:23:23;;;;;;;4.15;1.20;;;;;;;;;;5047574;28;20232;-56
2022/09/16 14:25:50;;;;;;;7.78;1.40;;;;;;;;;;5052084;28;20219;-56
2022/09/16 14:28:25;;;;;;;4.25;1.50;;;;;;;;;;5052122;28;20524;-56
2022/09/16 14:30:57;;;;;;;6.47;1.20;;;;;;;;;;5052325;28;20212;-57
2022/09/16 14:33:30;;;;;;;3.33;0.98;;;;;;;;;;5044119;28;20238;-56
2022/09/16 14:35:59;;;;;;;4.05;1.20;;;;;;;;;;5051794;28;20274;-54
2022/09/16 14:38:32;;;;;;;3.67;1.10;;;;;;;;;;5048942;28;20582;-56
2022/09/16 14:41:20;;;;;;;3.13;1.10;;;;;;;;;;5045376;28;20232;-51
2022/09/16 14:43:47;;;;;;;2.42;1.05;;;;;;;;;;5046466;28;20215;-56
2022/09/16 14:46:16;;;;;;;3.55;1.20;;;;;;;;;;5047483;28;20259;-58
2022/09/16 14:48:44;;;;;;;4.30;1.48;;;;;;;;;;5052436;28;20668;-57
2022/09/16 14:51:20;;;;;;;5.68;1.50;;;;;;;;;;5051889;28;20235;-56
2022/09/16 14:53:58;;;;;;;1.98;0.85;;;;;;;;;;5043798;28;20227;-56
2022/09/16 14:56:38;;;;;;;2.33;1.10;;;;;;;;;;5051080;28;20227;-56
2022/09/16 14:59:09;;;;;;;2.55;1.30;;;;;;;;;;5052442;28;20223;-57
2022/09/16 15:01:36;;;;;;;2.55;2.22;;;;;;;;;;5051478;28;20219;-57
2022/09/16 15:04:17;;;;;;;2.28;0.90;;;;;;;;;;5049484;28;20231;-57
2022/09/16 15:06:48;;;;;;;1.27;0.80;;;;;;;;;;5052901;28;20224;-56
2022/09/16 15:09:25;;;;;;;6.05;1.42;;;;;;;;;;5050347;28;20663;-56
2022/09/16 15:11:56;;;;;;;2.38;0.80;;;;;;;;;;5049362;28;20235;-55
2022/09/16 15:14:24;;;;;;;3.22;0.73;;;;;;;;;;5052099;28;20220;-56
2022/09/16 15:16:58;;;;;;;4.32;1.30;;;;;;;;;;5052303;28;20216;-57
2022/09/16 15:19:30;;;;;;;1.85;0.88;;;;;;;;;;5044416;28;20219;-56
2022/09/16 15:21:58;;;;;;;10.57;2.03;;;;;;;;;;5050010;28;20626;-56